Time;durP1;ratioP1;P1;durP2;ratioP2;P2;SDS_P1;SDS_P2;PMS_P1;PMS_P2;Temp;Humidity;BMP_temperature;BMP_pressure;BME280_temperature;BME280_humidity;BME280_pressure;Samples;Min_cycle;Max_cycle;Signal;HPM_P1;HPM_P2
2023/10/28 00:01:04;;;;;;;8.13;1.77;;;;;;;19.60;58.65;99732.97;4911373;29;20137;-77
2023/10/28 00:03:31;;;;;;;6.07;1.70;;;;;;;19.50;58.90;99740.72;4919126;28;20569;-78
2023/10/28 00:06:02;;;;;;;4.72;1.45;;;;;;;19.53;58.14;99747.53;4876184;29;20058;-77
2023/10/28 00:08:29;;;;;;;11.45;1.83;;;;;;;19.39;55.70;99744.91;4904626;29;20052;-77
2023/10/28 00:10:56;;;;;;;6.30;1.90;;;;;;;19.49;59.33;99743.59;4896501;29;20337;-79
2023/10/28 00:13:23;;;;;;;8.95;1.92;;;;;;;19.59;58.30;99739.41;4897733;29;20118;-79
2023/10/28 00:15:50;;;;;;;10.43;2.08;;;;;;;19.42;57.97;99717.56;4902584;29;20056;-78
2023/10/28 00:18:18;;;;;;;10.52;1.92;;;;;;;19.30;57.56;99686.19;4883993;29;20055;-78
2023/10/28 00:20:45;;;;;;;8.18;1.52;;;;;;;19.51;57.43;99718.13;4886280;29;20056;-77
2023/10/28 00:23:15;;;;;;;9.75;2.05;;;;;;;19.50;55.30;99729.13;4914593;29;20458;-77
2023/10/28 00:25:42;;;;;;;6.30;1.90;;;;;;;19.25;56.12;99708.34;4886017;29;20395;-77
2023/10/28 00:28:09;;;;;;;8.25;1.70;;;;;;;19.50;59.13;99729.13;4906203;29;20131;-77
2023/10/28 00:30:40;;;;;;;10.02;1.90;;;;;;;19.38;57.11;99727.09;4924841;29;20113;-77
2023/10/28 00:33:07;;;;;;;5.97;1.70;;;;;;;19.15;57.14;99689.97;4911846;28;20274;-77
2023/10/28 00:35:34;;;;;;;4.90;1.75;;;;;;;19.40;58.47;99734.97;4922248;28;20393;-77
2023/10/28 00:38:01;;;;;;;8.13;1.35;;;;;;;19.29;56.01;99733.78;4895685;29;20466;-78
2023/10/28 00:40:31;;;;;;;6.53;2.03;;;;;;;19.27;57.01;99749.31;4888943;29;20110;-78
2023/10/28 00:43:02;;;;;;;9.32;1.95;;;;;;;19.21;56.50;99748.31;4902879;29;20051;-77
2023/10/28 00:45:29;;;;;;;4.55;1.73;;;;;;;18.95;59.85;99690.06;4868619;29;20107;-78
2023/10/28 00:48:00;;;;;;;9.88;2.05;;;;;;;19.23;58.85;99737.34;4876255;29;20114;-79
2023/10/28 00:50:31;;;;;;;6.95;1.73;;;;;;;19.20;56.65;99735.91;4889119;29;20043;-80
2023/10/28 00:53:02;;;;;;;7.00;1.60;;;;;;;19.19;55.20;99736.91;4898947;29;20058;-77
2023/10/28 00:55:30;;;;;;;9.57;1.60;;;;;;;19.03;54.28;99728.50;4908193;29;20540;-79
2023/10/28 00:57:58;;;;;;;5.72;1.50;;;;;;;18.73;57.41;99681.41;4904783;29;20401;-78
2023/10/28 01:00:25;;;;;;;8.32;1.60;;;;;;;18.97;57.10;99708.69;4884305;29;20496;-77
2023/10/28 01:02:52;;;;;;;6.68;1.52;;;;;;;18.96;54.12;99726.69;4912812;28;20064;-77
2023/10/28 01:05:21;;;;;;;8.48;1.50;;;;;;;18.89;55.04;99712.44;4891090;29;20323;-79
2023/10/28 01:07:49;;;;;;;5.63;1.58;;;;;;;19.04;54.70;99731.00;4894082;29;20051;-78
2023/10/28 01:10:35;;;;;;;6.93;1.65;;;;;;;19.06;52.92;99730.78;4903490;29;20056;-77
2023/10/28 01:13:06;;;;;;;3.55;1.15;;;;;;;19.02;56.55;99721.50;4887004;29;20410;-79
2023/10/28 01:15:37;;;;;;;5.55;1.88;;;;;;;18.83;58.72;99694.44;4876182;29;20051;-79
2023/10/28 01:18:04;;;;;;;5.82;1.67;;;;;;;19.12;56.21;99724.53;4874899;29;20059;-78
2023/10/28 01:20:31;;;;;;;6.43;1.92;;;;;;;19.00;56.88;99716.31;4887284;29;20154;-77
2023/10/28 01:23:02;;;;;;;9.90;1.80;;;;;;;19.08;54.45;99731.38;4896393;29;20287;-80
2023/10/28 01:25:33;;;;;;;10.23;2.22;;;;;;;19.20;57.22;99741.28;4882555;29;20055;-80
2023/10/28 01:27:59;;;;;;;5.05;1.40;;;;;;;19.12;56.46;99743.38;4904414;29;20368;-78
2023/10/28 01:30:27;;;;;;;8.52;1.95;;;;;;;19.02;54.50;99740.31;4901550;29;20055;-79
2023/10/28 01:32:54;;;;;;;8.43;1.95;;;;;;;19.11;56.83;99739.03;4934242;28;20062;-78
2023/10/28 01:35:22;;;;;;;6.70;1.60;;;;;;;19.07;55.93;99735.94;4918074;28;20544;-78
2023/10/28 01:37:49;;;;;;;8.07;1.70;;;;;;;19.10;54.92;99740.06;4929423;28;20043;-77
2023/10/28 01:40:17;;;;;;;4.32;1.60;;;;;;;19.08;57.41;99743.00;4931595;28;20516;-79
2023/10/28 01:42:45;;;;;;;4.75;1.20;;;;;;;19.02;55.55;99748.38;4904054;29;20055;-78
2023/10/28 01:45:15;;;;;;;8.18;1.45;;;;;;;19.00;55.28;99733.28;4899918;29;20549;-77
2023/10/28 01:47:43;;;;;;;6.55;1.50;;;;;;;18.88;56.82;99726.91;4897538;29;20056;-78
2023/10/28 01:50:14;;;;;;;2.97;1.20;;;;;;;18.99;55.92;99763.09;4881985;29;20058;-79
2023/10/28 01:52:44;;;;;;;3.30;1.25;;;;;;;18.79;55.15;99755.06;4892974;29;20052;-77
2023/10/28 01:55:11;;;;;;;10.18;1.58;;;;;;;18.78;55.32;99754.22;4891941;29;20055;-77
2023/10/28 01:57:39;;;;;;;5.85;1.38;;;;;;;18.60;54.49;99735.22;4898524;29;20162;-78
2023/10/28 02:00:07;;;;;;;2.45;1.08;;;;;;;18.64;54.71;99749.06;4905688;29;20194;-76
2023/10/28 02:02:34;;;;;;;3.88;1.33;;;;;;;18.66;53.98;99755.06;4925270;28;20319;-79
2023/10/28 02:05:02;;;;;;;4.57;1.05;;;;;;;18.61;55.07;99754.88;4883925;29;20492;-76
2023/10/28 02:07:29;;;;;;;4.55;1.35;;;;;;;18.69;56.31;99771.63;4908223;29;20063;-79
2023/10/28 02:09:56;;;;;;;8.57;1.42;;;;;;;18.69;55.98;99770.75;4924728;29;20106;-76
2023/10/28 02:12:23;;;;;;;6.05;1.42;;;;;;;18.69;54.84;99760.84;4929977;29;20058;-77
2023/10/28 02:14:50;;;;;;;8.93;1.60;;;;;;;18.65;53.52;99774.94;4915154;29;20063;-78
2023/10/28 02:17:18;;;;;;;4.85;1.42;;;;;;;18.66;57.51;99763.94;4915465;29;20103;-78
2023/10/28 02:19:46;;;;;;;7.32;1.75;;;;;;;18.64;54.91;99773.25;4915975;29;20517;-80
2023/10/28 02:22:17;;;;;;;4.53;1.10;;;;;;;18.64;56.49;99786.69;4911650;29;20062;-78
2023/10/28 02:24:45;;;;;;;4.53;1.30;;;;;;;18.45;56.04;99766.91;4901270;29;20421;-79
2023/10/28 02:27:12;;;;;;;3.30;1.27;;;;;;;18.50;54.76;99792.09;4897993;29;20131;-77
2023/10/28 02:29:39;;;;;;;3.75;1.30;;;;;;;18.44;56.74;99784.84;4918704;29;20057;-77
2023/10/28 02:32:06;;;;;;;5.47;1.40;;;;;;;18.52;56.62;99798.09;4908100;28;20056;-78
2023/10/28 02:34:33;;;;;;;5.10;1.02;;;;;;;18.45;57.50;99780.34;4894537;29;20135;-77
2023/10/28 02:37:00;;;;;;;10.88;1.80;;;;;;;18.40;56.45;99766.66;4910454;29;20356;-78
2023/10/28 02:39:27;;;;;;;5.22;1.05;;;;;;;18.55;57.38;99792.31;4909395;29;20056;-79
2023/10/28 02:41:55;;;;;;;8.60;1.42;;;;;;;18.50;57.85;99775.97;4914865;29;20935;-76
2023/10/28 02:44:26;;;;;;;5.65;1.38;;;;;;;18.52;58.20;99775.75;4910515;29;20048;-78
2023/10/28 02:46:56;;;;;;;5.15;1.73;;;;;;;18.72;57.26;99800.75;4897611;29;20474;-77
2023/10/28 02:49:23;;;;;;;8.52;1.45;;;;;;;18.45;57.37;99754.28;4894387;29;20046;-78
2023/10/28 02:51:50;;;;;;;7.18;1.90;;;;;;;18.32;55.98;99738.16;4895201;29;20545;-80
2023/10/28 02:54:17;;;;;;;8.95;1.45;;;;;;;18.54;54.99;99798.72;4914790;29;20093;-79
2023/10/28 02:56:46;;;;;;;6.45;1.88;;;;;;;18.55;58.45;99802.22;4882662;29;20167;-78
2023/10/28 02:59:15;;;;;;;9.13;2.17;;;;;;;18.48;55.15;99818.34;4900934;29;20079;-77
2023/10/28 03:01:42;;;;;;;6.68;1.70;;;;;;;18.42;55.32;99819.16;4912129;28;20146;-77
2023/10/28 03:04:10;;;;;;;6.95;1.88;;;;;;;18.33;58.27;99809.69;4901440;29;20143;-79
2023/10/28 03:06:37;;;;;;;9.45;1.83;;;;;;;18.37;56.01;99808.22;4889103;29;20052;-77
2023/10/28 03:09:06;;;;;;;9.55;1.80;;;;;;;18.35;55.83;99816.50;4888229;29;20047;-78
2023/10/28 03:11:33;;;;;;;9.98;1.92;;;;;;;18.34;57.55;99822.06;4905593;29;20304;-79
2023/10/28 03:14:00;;;;;;;13.32;2.30;;;;;;;18.24;55.53;99813.59;4911429;29;20490;-79
2023/10/28 03:16:28;;;;;;;5.88;1.50;;;;;;;18.11;55.51;99817.91;4895737;29;20054;-78
2023/10/28 03:19:00;;;;;;;5.22;1.05;;;;;;;17.91;55.99;99812.53;4901639;29;20063;-78
2023/10/28 03:21:27;;;;;;;8.23;1.73;;;;;;;17.88;55.84;99823.66;4900382;29;20107;-76
2023/10/28 03:23:55;;;;;;;6.30;1.27;;;;;;;17.86;56.68;99841.00;4911724;29;20205;-76
2023/10/28 03:26:22;;;;;;;6.45;2.03;;;;;;;17.75;58.20;99822.78;4900420;29;20467;-77
2023/10/28 03:28:50;;;;;;;6.40;1.60;;;;;;;17.88;57.36;99844.31;4897877;29;20048;-78
2023/10/28 03:31:16;;;;;;;6.40;1.73;;;;;;;17.75;57.97;99817.41;4930601;28;20047;-78
2023/10/28 03:33:46;;;;;;;6.25;1.77;;;;;;;17.82;58.97;99835.22;4927358;28;20106;-79
2023/10/28 03:36:13;;;;;;;6.47;1.60;;;;;;;17.80;57.86;99839.94;4908657;28;20233;-77
2023/10/28 03:38:40;;;;;;;12.32;2.10;;;;;;;17.69;57.82;99835.97;4886202;29;20051;-77
2023/10/28 03:41:08;;;;;;;7.15;1.77;;;;;;;17.71;58.03;99849.19;4899245;29;20055;-76
2023/10/28 03:43:36;;;;;;;5.75;1.90;;;;;;;17.78;59.36;99849.22;4906461;29;20079;-78
2023/10/28 03:46:03;;;;;;;12.00;1.70;;;;;;;17.83;59.93;99842.22;4882871;29;20483;-76
2023/10/28 03:48:34;;;;;;;4.78;1.60;;;;;;;17.76;58.36;99819.06;4884568;29;20143;-79
2023/10/28 03:51:04;;;;;;;6.53;2.13;;;;;;;17.72;59.76;99830.19;4885476;29;20143;-75
2023/10/28 03:53:31;;;;;;;5.03;1.77;;;;;;;18.01;61.69;99846.19;4894196;29;20720;-76
2023/10/28 03:55:58;;;;;;;9.95;2.63;;;;;;;17.95;58.21;99866.63;4907212;29;20063;-77
2023/10/28 03:58:25;;;;;;;7.05;1.73;;;;;;;17.93;59.96;99864.13;4891314;29;20134;-79
2023/10/28 04:00:53;;;;;;;7.28;2.30;;;;;;;17.73;61.88;99813.06;4894184;29;20142;-78
2023/10/28 04:03:23;;;;;;;9.35;2.38;;;;;;;18.18;63.18;99874.34;4894465;29;20315;-78
2023/10/28 04:05:54;;;;;;;5.32;2.05;;;;;;;18.22;62.00;99864.00;4890379;29;20048;-78
2023/10/28 04:08:21;;;;;;;8.30;2.17;;;;;;;18.22;63.67;99839.84;4892330;28;20468;-78
2023/10/28 04:10:48;;;;;;;10.40;2.78;;;;;;;18.30;58.50;99869.19;4901057;29;20059;-78
2023/10/28 04:13:14;;;;;;;9.77;2.80;;;;;;;18.09;58.32;99859.44;4904802;29;20122;-78
2023/10/28 04:15:41;;;;;;;7.57;3.38;;;;;;;17.88;58.67;99844.31;4899800;29;20119;-77
2023/10/28 04:18:10;;;;;;;6.40;2.20;;;;;;;17.82;58.83;99855.88;4876090;29;20055;-78
2023/10/28 04:20:39;;;;;;;11.60;2.85;;;;;;;17.85;59.18;99874.25;4881253;29;20099;-79
2023/10/28 04:23:06;;;;;;;8.88;2.58;;;;;;;17.72;58.53;99886.56;4885439;29;20283;-78
2023/10/28 04:25:34;;;;;;;8.65;2.67;;;;;;;17.58;59.19;99873.31;4886344;29;20052;-77
2023/10/28 04:28:01;;;;;;;9.30;1.98;;;;;;;17.21;59.09;99838.66;4889282;29;20466;-77
2023/10/28 04:30:30;;;;;;;5.53;1.73;;;;;;;17.37;60.98;99863.50;4909383;29;20358;-75
2023/10/28 04:33:05;;;;;;;12.32;2.42;;;;;;;17.57;59.48;99888.53;4918342;28;20055;-75
2023/10/28 04:35:32;;;;;;;8.98;2.80;;;;;;;17.54;58.59;99902.38;4909175;28;20227;-76
2023/10/28 04:37:58;;;;;;;6.00;1.95;;;;;;;17.48;59.51;99897.81;4910051;29;20086;-78
2023/10/28 04:40:27;;;;;;;7.13;2.30;;;;;;;17.42;59.55;99898.59;4895620;29;20074;-80
2023/10/28 04:42:54;;;;;;;3.55;1.50;;;;;;;17.14;59.80;99861.09;4915630;29;20510;-79
2023/10/28 04:45:21;;;;;;;9.20;2.13;;;;;;;17.02;61.18;99844.72;4868787;29;20455;-78
2023/10/28 04:47:50;;;;;;;8.32;2.33;;;;;;;17.24;60.75;99891.91;4872275;29;20336;-78
2023/10/28 04:50:19;;;;;;;10.90;2.22;;;;;;;17.25;61.07;99893.53;4888570;29;20103;-78
2023/10/28 04:52:46;;;;;;;8.93;1.83;;;;;;;17.03;60.14;99873.19;4895360;29;20680;-79
2023/10/28 04:55:13;;;;;;;6.35;1.60;;;;;;;16.61;61.52;99807.94;4877478;29;20549;-78
2023/10/28 04:57:41;;;;;;;9.15;2.40;;;;;;;17.22;61.16;99903.84;4893280;29;20056;-78
2023/10/28 05:00:13;;;;;;;8.18;2.25;;;;;;;17.15;60.49;99902.97;4880978;29;20051;-79
2023/10/28 05:02:44;;;;;;;3.70;1.40;;;;;;;17.14;63.09;99880.69;4905043;28;20048;-79
2023/10/28 05:05:13;;;;;;;8.65;2.38;;;;;;;17.28;61.11;99913.78;4896897;29;20288;-77
2023/10/28 05:07:49;;;;;;;6.15;1.88;;;;;;;17.30;60.89;99912.56;4889742;29;20043;-77
2023/10/28 05:10:21;;;;;;;6.65;2.20;;;;;;;17.17;60.70;99907.13;4909913;29;20413;-76
2023/10/28 05:12:49;;;;;;;5.15;1.70;;;;;;;17.42;64.67;99920.06;4904632;29;20048;-76
2023/10/28 05:15:16;;;;;;;10.68;2.22;;;;;;;17.33;60.93;99919.41;4903954;29;20498;-76
2023/10/28 05:17:42;;;;;;;10.02;1.95;;;;;;;17.32;62.27;99919.59;4892098;28;20060;-76
2023/10/28 05:20:10;;;;;;;5.13;2.05;;;;;;;17.43;60.75;99940.53;4902709;29;20425;-77
2023/10/28 05:22:39;;;;;;;5.68;1.98;;;;;;;17.43;60.45;99948.56;4890864;29;20055;-80
2023/10/28 05:25:08;;;;;;;10.45;2.15;;;;;;;17.08;59.56;99903.75;4897480;29;20494;-76
2023/10/28 05:27:36;;;;;;;7.80;2.22;;;;;;;17.24;59.12;99932.13;4914561;29;20052;-78
2023/10/28 05:30:06;;;;;;;4.43;1.98;;;;;;;17.28;59.94;99954.88;4896392;29;20419;-79
2023/10/28 05:32:39;;;;;;;11.50;2.53;;;;;;;17.17;59.87;99958.06;4916494;29;20078;-78
2023/10/28 05:35:11;;;;;;;3.90;1.52;;;;;;;17.12;60.36;99957.84;4910637;29;20499;-77
2023/10/28 05:37:38;;;;;;;7.25;1.98;;;;;;;16.97;62.26;99936.47;4923884;29;20067;-78
2023/10/28 05:40:10;;;;;;;11.02;2.30;;;;;;;17.18;60.89;99967.75;4889353;29;20549;-77
2023/10/28 05:42:37;;;;;;;4.05;1.73;;;;;;;17.09;60.95;99960.91;4893255;29;20059;-77
2023/10/28 05:45:05;;;;;;;3.78;2.05;;;;;;;17.10;60.19;99975.97;4889917;29;20123;-76
2023/10/28 05:47:32;;;;;;;11.45;2.30;;;;;;;17.14;59.69;99984.47;4891636;29;20119;-77
2023/10/28 05:50:07;;;;;;;7.50;2.40;;;;;;;17.13;61.25;99986.31;4900782;29;20052;-79
2023/10/28 05:52:38;;;;;;;4.38;1.60;;;;;;;17.21;60.91;100001.41;4873937;29;20047;-77
2023/10/28 05:55:06;;;;;;;5.55;1.90;;;;;;;17.23;62.27;99994.88;4860261;29;20047;-78
2023/10/28 05:57:33;;;;;;;10.50;2.30;;;;;;;17.26;60.10;99997.16;4899428;29;20091;-77
2023/10/28 06:00:00;;;;;;;10.23;2.05;;;;;;;17.38;60.18;100002.81;4888570;29;20165;-78
2023/10/28 06:02:27;;;;;;;7.22;1.92;;;;;;;17.39;61.28;100009.00;4907754;28;20522;-77
2023/10/28 06:04:54;;;;;;;10.90;2.20;;;;;;;17.34;59.69;100009.59;4889405;29;20076;-77
2023/10/28 06:07:23;;;;;;;10.73;1.90;;;;;;;17.28;59.69;100000.47;4914500;29;20048;-78
2023/10/28 06:09:50;;;;;;;14.02;2.15;;;;;;;17.39;59.16;100025.91;4914712;29;20078;-77
2023/10/28 06:12:17;;;;;;;11.18;3.80;;;;;;;17.34;60.04;100020.31;4884132;29;20079;-79
2023/10/28 06:14:46;;;;;;;15.88;3.50;;;;;;;17.32;59.78;100008.13;4898201;29;20059;-79
2023/10/28 06:17:16;;;;;;;10.55;3.90;;;;;;;17.43;60.39;100018.31;4885696;29;20047;-78
2023/10/28 06:19:47;;;;;;;16.80;3.83;;;;;;;17.55;59.84;100040.91;4894156;29;20047;-79
2023/10/28 06:22:16;;;;;;;17.17;3.28;;;;;;;17.70;60.96;100057.72;4902387;29;20462;-79
2023/10/28 06:24:42;;;;;;;15.77;2.95;;;;;;;17.71;59.89;100043.28;4891808;29;20383;-79
2023/10/28 06:27:09;;;;;;;7.18;2.40;;;;;;;17.79;60.00;100039.63;4897983;29;20063;-79
2023/10/28 06:29:39;;;;;;;6.90;2.20;;;;;;;17.81;60.49;100039.44;4898633;29;20108;-78
2023/10/28 06:32:09;;;;;;;8.05;2.15;;;;;;;18.03;61.28;100041.00;4886997;28;20219;-79
2023/10/28 06:34:38;;;;;;;17.10;2.53;;;;;;;18.26;58.73;100072.97;4930963;28;20337;-80
2023/10/28 06:37:05;;;;;;;13.48;3.20;;;;;;;18.13;60.03;100078.25;4886321;28;20086;-79
2023/10/28 06:39:36;;;;;;;7.05;1.88;;;;;;;18.25;61.58;100073.97;4886522;29;20056;-80
2023/10/28 06:42:06;;;;;;;5.32;2.00;;;;;;;18.34;59.11;100078.16;4898070;29;20059;-77
2023/10/28 06:44:33;;;;;;;14.00;2.50;;;;;;;18.43;58.45;100084.19;4884493;29;20283;-77
2023/10/28 06:47:00;;;;;;;2.90;1.73;;;;;;;18.48;58.08;100102.41;4874767;29;20447;-77
2023/10/28 06:49:27;;;;;;;7.97;1.80;;;;;;;18.19;57.10;100066.72;4888051;29;20052;-77
2023/10/28 06:51:54;;;;;;;8.13;1.92;;;;;;;18.65;58.88;100113.66;4899278;29;20478;-77
2023/10/28 06:54:20;;;;;;;7.68;1.75;;;;;;;18.51;57.50;100097.44;4879858;29;20055;-76
2023/10/28 06:56:47;;;;;;;7.00;1.95;;;;;;;18.50;57.43;100101.19;4886083;29;20561;-77
2023/10/28 06:59:15;;;;;;;4.72;1.73;;;;;;;18.67;59.90;100106.22;4895588;29;20055;-80
2023/10/28 07:01:42;;;;;;;6.68;1.80;;;;;;;18.69;59.46;100112.19;4936574;28;20465;-76
2023/10/28 07:04:10;;;;;;;7.88;2.20;;;;;;;18.28;58.46;100059.34;4912512;29;20422;-77
2023/10/28 07:06:42;;;;;;;5.53;1.92;;;;;;;18.51;58.55;100099.31;4906764;29;20055;-76
2023/10/28 07:09:09;;;;;;;6.78;2.15;;;;;;;18.58;58.25;100114.44;4901440;29;20060;-76
2023/10/28 07:11:36;;;;;;;5.45;2.10;;;;;;;18.61;56.32;100113.19;4921637;29;20059;-76
2023/10/28 07:14:06;;;;;;;6.30;1.85;;;;;;;18.23;57.66;100065.31;4909935;29;20067;-77
2023/10/28 07:16:42;;;;;;;10.35;1.83;;;;;;;18.49;55.26;100121.00;4898376;29;20487;-79
2023/10/28 07:19:12;;;;;;;5.57;2.08;;;;;;;18.16;54.22;100064.44;4877864;29;20048;-80
2023/10/28 07:21:41;;;;;;;;;;;;;;;18.46;55.81;100124.09;4900627;29;20056;-78
2023/10/28 07:24:11;;;;;;;7.22;1.60;;;;;;;18.71;59.23;100132.47;4854075;29;19969;-79
2023/10/28 07:26:38;;;;;;;9.50;2.17;;;;;;;18.56;56.38;100132.63;4846396;29;20059;-77
2023/10/28 07:29:10;;;;;;;6.03;1.75;;;;;;;18.43;58.30;100097.63;4889146;29;20466;-78
2023/10/28 07:31:40;;;;;;;8.05;2.65;;;;;;;18.80;57.51;100117.03;4905741;29;20091;-77
2023/10/28 07:34:07;;;;;;;11.77;2.53;;;;;;;18.62;58.42;100103.28;4900494;29;20125;-79
2023/10/28 07:36:39;;;;;;;9.40;1.75;;;;;;;18.55;57.24;100119.41;4891125;29;20601;-77
2023/10/28 07:39:06;;;;;;;8.52;1.60;;;;;;;18.71;54.80;100139.72;4874369;29;20138;-77
2023/10/28 07:41:33;;;;;;;4.55;1.42;;;;;;;18.73;57.46;100153.78;4891305;29;20066;-78
2023/10/28 07:44:00;;;;;;;7.60;2.47;;;;;;;18.98;56.98;100157.66;4875107;29;20044;-79
2023/10/28 07:46:33;;;;;;;9.82;1.80;;;;;;;18.90;56.08;100163.19;4864298;29;20510;-79
2023/10/28 07:49:03;;;;;;;7.00;1.52;;;;;;;18.74;56.96;100139.34;4877833;29;20363;-78
2023/10/28 07:51:30;;;;;;;8.30;1.85;;;;;;;19.05;58.73;100156.81;4894911;29;20119;-78
2023/10/28 07:53:58;;;;;;;5.63;1.70;;;;;;;19.33;56.36;100170.97;4880231;29;20056;-79
2023/10/28 07:56:25;;;;;;;6.13;1.67;;;;;;;19.30;59.62;100162.50;4895141;29;20479;-79
2023/10/28 07:58:58;;;;;;;7.57;1.90;;;;;;;19.25;57.01;100160.41;4888065;29;20287;-78
2023/10/28 08:01:28;;;;;;;6.93;1.90;;;;;;;19.24;56.99;100166.81;4894912;29;20067;-77
2023/10/28 08:03:55;;;;;;;3.13;1.38;;;;;;;19.42;57.68;100175.13;4892812;29;20405;-78
2023/10/28 08:06:27;;;;;;;6.68;1.73;;;;;;;19.21;57.47;100129.56;4876376;29;20641;-78
2023/10/28 08:09:06;;;;;;;6.07;1.50;;;;;;;19.29;57.19;100147.34;4859954;29;20055;-78
2023/10/28 08:11:33;;;;;;;5.82;1.80;;;;;;;19.49;58.07;100179.69;4883029;28;20486;-78
2023/10/28 08:14:04;;;;;;;8.43;1.90;;;;;;;19.42;56.95;100169.75;4909672;29;20573;-78
2023/10/28 08:16:31;;;;;;;11.13;2.33;;;;;;;19.59;55.59;100169.38;4875431;29;20139;-79
2023/10/28 08:18:58;;;;;;;8.98;1.80;;;;;;;19.55;57.95;100174.31;4888348;29;20059;-76
2023/10/28 08:21:25;;;;;;;5.53;2.25;;;;;;;19.74;55.54;100167.31;4894149;29;20051;-78
2023/10/28 08:23:52;;;;;;;5.10;1.63;;;;;;;19.73;55.31;100189.06;4895128;29;20060;-77
2023/10/28 08:26:19;;;;;;;8.95;1.98;;;;;;;19.81;53.88;100172.72;4893923;29;20130;-77
2023/10/28 08:28:51;;;;;;;8.63;2.05;;;;;;;19.69;53.25;100169.81;4873210;29;20051;-78
2023/10/28 08:31:18;;;;;;;9.85;1.77;;;;;;;19.94;54.56;100178.09;4886746;29;20052;-76
2023/10/28 08:33:52;;;;;;;6.60;1.95;;;;;;;20.15;53.25;100168.13;4887111;29;20051;-80
2023/10/28 08:36:25;;;;;;;8.45;2.10;;;;;;;20.08;52.09;100146.56;4890942;29;20446;-78
2023/10/28 08:38:52;;;;;;;7.90;1.42;;;;;;;20.47;53.45;100206.84;4911591;29;20505;-78
2023/10/28 08:41:22;;;;;;;6.13;1.80;;;;;;;20.23;53.98;100159.81;4908205;29;20420;-78
2023/10/28 08:43:51;;;;;;;4.80;1.52;;;;;;;20.58;52.19;100191.91;4914128;29;20336;-78
2023/10/28 08:46:18;;;;;;;3.90;1.63;;;;;;;20.61;50.10;100210.38;4894236;29;20048;-79
2023/10/28 08:48:45;;;;;;;4.50;1.65;;;;;;;20.50;51.17;100192.94;4914337;29;20067;-77
2023/10/28 08:51:20;;;;;;;5.00;1.30;;;;;;;20.64;51.13;100199.16;4899156;29;20087;-78
2023/10/28 08:53:50;;;;;;;5.40;1.73;;;;;;;20.73;52.15;100214.06;4905156;29;20095;-78
2023/10/28 08:56:18;;;;;;;7.20;1.58;;;;;;;20.64;50.59;100194.56;4912615;29;20052;-78
2023/10/28 08:58:48;;;;;;;6.53;1.85;;;;;;;20.94;49.99;100221.03;4915439;29;20051;-78
2023/10/28 09:01:22;;;;;;;5.80;1.40;;;;;;;20.84;49.93;100209.88;4904555;28;20757;-80
2023/10/28 09:04:06;;;;;;;11.93;6.47;;;;;;;20.86;50.82;100223.97;4901968;29;20130;-79
2023/10/28 09:06:33;;;;;;;5.70;1.70;;;;;;;20.86;50.81;100216.69;4880730;29;20052;-79
2023/10/28 09:09:12;;;;;;;4.00;1.17;;;;;;;20.98;50.86;100227.66;4900622;29;20442;-79
2023/10/28 09:11:42;;;;;;;4.88;1.45;;;;;;;21.10;52.11;100228.66;4905619;29;20261;-79
2023/10/28 09:14:09;;;;;;;10.45;2.00;;;;;;;21.05;50.97;100227.63;4880599;29;20048;-80
2023/10/28 09:16:37;;;;;;;4.82;1.83;;;;;;;20.97;49.69;100193.63;4884671;29;20289;-78
2023/10/28 09:19:05;;;;;;;3.53;1.83;;;;;;;21.17;47.46;100225.09;4912510;29;20052;-78
2023/10/28 09:21:31;;;;;;;7.93;2.25;;;;;;;21.23;50.17;100229.63;4898825;29;20056;-77
2023/10/28 09:24:02;;;;;;;5.03;1.08;;;;;;;21.33;50.65;100235.38;4896339;29;20048;-76
2023/10/28 09:26:30;;;;;;;4.32;1.40;;;;;;;21.44;50.28;100232.03;4901253;29;20087;-78
2023/10/28 09:28:58;;;;;;;3.78;1.13;;;;;;;21.41;51.50;100221.69;4908408;29;20717;-78
2023/10/28 09:31:33;;;;;;;3.38;1.38;;;;;;;21.49;50.85;100223.28;4891588;29;20083;-79
2023/10/28 09:34:03;;;;;;;7.30;1.80;;;;;;;21.42;49.44;100209.81;4888735;29;20063;-79
2023/10/28 09:36:32;;;;;;;3.88;1.27;;;;;;;21.53;51.18;100219.94;4910720;29;20291;-79
2023/10/28 09:39:05;;;;;;;4.20;1.52;;;;;;;21.47;48.94;100222.66;4904086;29;20288;-78
2023/10/28 09:41:33;;;;;;;4.05;1.20;;;;;;;21.62;51.73;100219.66;4897607;29;20063;-77
2023/10/28 09:44:00;;;;;;;5.97;1.42;;;;;;;21.64;50.58;100244.59;4901242;29;20059;-77
2023/10/28 09:46:31;;;;;;;3.67;1.42;;;;;;;21.39;50.54;100169.75;4913083;29;20412;-78
2023/10/28 09:49:03;;;;;;;3.72;1.65;;;;;;;21.65;51.28;100228.16;4906903;29;20074;-78
2023/10/28 09:51:33;;;;;;;3.65;1.73;;;;;;;21.66;51.73;100226.28;4912585;29;20287;-78
2023/10/28 09:54:11;;;;;;;3.42;1.42;;;;;;;21.82;48.18;100247.38;4878650;29;20103;-79
2023/10/28 09:56:45;;;;;;;4.65;1.77;;;;;;;21.93;50.30;100240.44;4890522;29;20441;-79
2023/10/28 09:59:21;;;;;;;5.88;1.70;;;;;;;21.80;50.48;100219.75;4903111;28;20383;-77
2023/10/28 10:01:48;;;;;;;7.88;1.67;;;;;;;22.00;46.53;100251.19;4886742;29;20055;-78
2023/10/28 10:04:31;;;;;;;5.53;1.60;;;;;;;21.87;47.19;100236.75;4907010;29;20066;-77
2023/10/28 10:06:58;;;;;;;5.00;1.40;;;;;;;22.00;47.38;100251.19;4902638;29;20036;-78
2023/10/28 10:09:25;;;;;;;6.57;1.60;;;;;;;22.07;48.32;100247.38;4895836;29;20056;-77
2023/10/28 10:11:56;;;;;;;5.28;1.20;;;;;;;22.10;48.16;100251.53;4916923;29;20068;-76
2023/10/28 10:14:31;;;;;;;5.55;1.25;;;;;;;22.10;49.99;100235.31;4896545;29;20457;-77
2023/10/28 10:17:08;;;;;;;5.70;1.52;;;;;;;22.11;50.63;100242.34;4865612;29;20099;-79
2023/10/28 10:19:43;;;;;;;7.53;1.48;;;;;;;22.06;46.93;100250.28;4871201;29;20426;-77
2023/10/28 10:22:11;;;;;;;7.03;1.90;;;;;;;22.17;45.68;100246.88;4876321;29;20052;-77
2023/10/28 10:24:49;;;;;;;3.85;1.40;;;;;;;22.19;47.94;100233.97;4886895;29;20407;-79
2023/10/28 10:27:44;;;;;;;6.20;1.50;;;;;;;22.39;48.92;100239.22;4887098;29;20158;-77
2023/10/28 10:30:14;;;;;;;7.43;2.22;;;;;;;22.28;48.89;100238.09;4896523;29;20052;-77
2023/10/28 10:32:49;;;;;;;2.80;1.50;;;;;;;22.17;49.26;100222.56;4877398;29;20513;-79
2023/10/28 10:35:31;;;;;;;5.55;1.10;;;;;;;22.16;49.27;100235.25;4882566;29;20055;-78
2023/10/28 10:38:11;;;;;;;3.85;1.50;;;;;;;22.27;50.13;100241.81;4895088;29;20501;-78
2023/10/28 10:41:00;;;;;;;7.55;1.77;;;;;;;22.15;49.09;100244.38;4895836;29;20044;-78
2023/10/28 10:43:31;;;;;;;8.57;1.88;;;;;;;22.03;47.57;100232.66;4877664;29;20566;-77
2023/10/28 10:46:03;;;;;;;5.40;1.52;;;;;;;22.01;49.77;100232.03;4900271;29;20537;-78
2023/10/28 10:48:34;;;;;;;5.38;1.73;;;;;;;21.94;49.24;100217.75;4893622;29;20059;-78
2023/10/28 10:51:02;;;;;;;5.30;1.73;;;;;;;22.20;50.13;100235.66;4886456;29;20065;-79
2023/10/28 10:53:29;;;;;;;3.72;1.63;;;;;;;22.08;48.46;100237.41;4889575;29;20555;-78
2023/10/28 10:55:57;;;;;;;4.10;1.50;;;;;;;21.85;51.04;100228.03;4870295;29;20087;-78
2023/10/28 10:58:24;;;;;;;3.70;1.63;;;;;;;21.92;51.43;100228.78;4893126;29;20063;-76
2023/10/28 11:00:55;;;;;;;7.05;3.03;;;;;;;21.93;51.15;100233.13;4884858;29;20085;-77
2023/10/28 11:03:24;;;;;;;4.95;2.50;;;;;;;21.61;50.91;100205.34;4906774;28;20122;-79
2023/10/28 11:05:52;;;;;;;7.82;3.17;;;;;;;21.71;48.60;100242.66;4888439;29;20082;-80
2023/10/28 11:08:26;;;;;;;7.63;2.03;;;;;;;21.58;51.62;100194.13;4897761;29;20059;-80
2023/10/28 11:11:01;;;;;;;4.53;2.28;;;;;;;21.71;50.27;100237.25;4871369;29;20252;-77
2023/10/28 11:13:34;;;;;;;5.93;2.03;;;;;;;21.69;51.40;100237.47;4870284;29;20047;-80
2023/10/28 11:16:01;;;;;;;4.72;1.65;;;;;;;21.84;51.00;100241.75;4911308;29;20055;-78
2023/10/28 11:18:28;;;;;;;4.13;1.52;;;;;;;21.70;51.10;100238.28;4903654;29;20056;-77
2023/10/28 11:20:56;;;;;;;3.95;1.42;;;;;;;21.57;50.26;100241.09;4895435;29;20039;-78
2023/10/28 11:23:32;;;;;;;7.68;1.85;;;;;;;21.25;50.43;100190.56;4890380;28;20371;-80
2023/10/28 11:26:24;;;;;;;2.47;1.50;;;;;;;21.70;51.91;100235.59;4867261;29;20143;-78
2023/10/28 11:29:00;;;;;;;4.53;1.67;;;;;;;21.51;51.86;100234.69;4894961;29;20058;-77
2023/10/28 11:31:29;;;;;;;3.13;1.30;;;;;;;21.22;52.19;100176.69;4909337;29;20056;-80
2023/10/28 11:34:04;;;;;;;10.32;2.17;;;;;;;21.60;51.93;100229.84;4918795;28;20055;-79
2023/10/28 11:36:33;;;;;;;4.00;1.40;;;;;;;21.47;49.93;100225.38;4922953;29;20061;-79
2023/10/28 11:39:13;;;;;;;6.32;1.75;;;;;;;21.28;48.22;100194.69;4905409;29;20059;-78